logo
Rechercher aéroport 
image banner adimage banner adimage banner ad
image banner ad

2CA2 - Cones Field

Situé à Twentynine Palms, United States

ICAO - 2CA2, IATA -

Données fournies par Airmate  

Information générale

Coordonnées: N34°9'46" W116°2'53"
Élévation : 1800 feet MSL.
Variation magnétique : 14° East
Voir autres Aéroports à California

Données opérationnelles

Special qualification required
Heure actuelle UTC:
Heure actuelle locale:
Météo à : KNXP - Twentynine Palms Self ( 18 km )
METAR: KNXP 281256Z AUTO 00000KT 10SM CLR 23/07 A3006 RMK AO2 SLP141 T02280067
TAF: TAF KNXP 2809/2909 VRB05KT 9999 FEW100 QNH2997INS BECMG 2818/2820 14010KT 9999 FEW100 QNH3000INS TEMPO 2820/2902 14010G20KT T24/2813Z T37/2822Z
Voir NOTAMs / SUP AIP / TFR affectant cet aéroport [VIEW]
Fréquences de communication: [VIEW]

Pistes:

Identifiant RWYQFULongueur (ft)Largeur (ft)SurfaceLDA (ft)
051400100EARTH
231400100EARTH
121050450EARTH
301050450EARTH
171300100EARTH
351300100EARTH

Coordonnées de l'aéroport

Adresse: Twentynine Palms United States

Vue satellite de 2CA2